sensor_id;sensor_type;location;lat;lon;timestamp;P1;durP1;ratioP1;P2;durP2;ratioP2
58222;SDS011;44020;50.890;15.796;2023-04-25T00:01:03;4.10;;;1.60;;
58222;SDS011;44020;50.890;15.796;2023-04-25T00:03:35;2.40;;;1.80;;
58222;SDS011;44020;50.890;15.796;2023-04-25T00:06:03;3.10;;;1.90;;
58222;SDS011;44020;50.890;15.796;2023-04-25T00:08:30;3.30;;;2.40;;
58222;SDS011;44020;50.890;15.796;2023-04-25T00:10:58;3.30;;;2.70;;
58222;SDS011;44020;50.890;15.796;2023-04-25T00:13:26;3.50;;;2.70;;
58222;SDS011;44020;50.890;15.796;2023-04-25T00:15:53;3.90;;;2.50;;
58222;SDS011;44020;50.890;15.796;2023-04-25T00:18:20;4.70;;;2.50;;
58222;SDS011;44020;50.890;15.796;2023-04-25T00:20:48;3.40;;;2.60;;
58222;SDS011;44020;50.890;15.796;2023-04-25T00:23:16;4.00;;;2.20;;
58222;SDS011;44020;50.890;15.796;2023-04-25T00:25:47;2.80;;;1.90;;
58222;SDS011;44020;50.890;15.796;2023-04-25T00:28:16;5.30;;;2.40;;
58222;SDS011;44020;50.890;15.796;2023-04-25T00:30:44;3.50;;;2.10;;
58222;SDS011;44020;50.890;15.796;2023-04-25T00:33:12;3.50;;;2.40;;
58222;SDS011;44020;50.890;15.796;2023-04-25T00:35:40;4.30;;;2.60;;
58222;SDS011;44020;50.890;15.796;2023-04-25T00:38:08;3.80;;;2.30;;
58222;SDS011;44020;50.890;15.796;2023-04-25T00:40:36;4.00;;;2.20;;
58222;SDS011;44020;50.890;15.796;2023-04-25T00:43:04;3.00;;;2.30;;
58222;SDS011;44020;50.890;15.796;2023-04-25T00:45:32;2.60;;;1.90;;
58222;SDS011;44020;50.890;15.796;2023-04-25T00:48:05;3.40;;;2.30;;
58222;SDS011;44020;50.890;15.796;2023-04-25T00:50:33;3.10;;;1.90;;
58222;SDS011;44020;50.890;15.796;2023-04-25T00:53:01;3.60;;;2.10;;
58222;SDS011;44020;50.890;15.796;2023-04-25T00:55:30;3.50;;;1.90;;
58222;SDS011;44020;50.890;15.796;2023-04-25T00:57:58;4.50;;;2.20;;
58222;SDS011;44020;50.890;15.796;2023-04-25T01:00:26;2.80;;;2.00;;
58222;SDS011;44020;50.890;15.796;2023-04-25T01:02:53;3.00;;;2.00;;
58222;SDS011;44020;50.890;15.796;2023-04-25T01:05:21;3.60;;;1.90;;
58222;SDS011;44020;50.890;15.796;2023-04-25T01:07:49;2.80;;;2.10;;
58222;SDS011;44020;50.890;15.796;2023-04-25T01:10:17;3.90;;;2.20;;
58222;SDS011;44020;50.890;15.796;2023-04-25T01:12:44;3.80;;;2.40;;
58222;SDS011;44020;50.890;15.796;2023-04-25T01:15:12;3.90;;;2.40;;
58222;SDS011;44020;50.890;15.796;2023-04-25T01:17:39;5.30;;;2.80;;
58222;SDS011;44020;50.890;15.796;2023-04-25T01:20:08;5.10;;;2.70;;
58222;SDS011;44020;50.890;15.796;2023-04-25T01:22:37;5.20;;;2.60;;
58222;SDS011;44020;50.890;15.796;2023-04-25T01:25:06;3.80;;;2.40;;
58222;SDS011;44020;50.890;15.796;2023-04-25T01:27:35;3.80;;;2.50;;
58222;SDS011;44020;50.890;15.796;2023-04-25T01:30:03;4.90;;;2.50;;
58222;SDS011;44020;50.890;15.796;2023-04-25T01:32:32;5.50;;;2.70;;
58222;SDS011;44020;50.890;15.796;2023-04-25T01:35:07;5.20;;;2.70;;
58222;SDS011;44020;50.890;15.796;2023-04-25T01:37:37;3.60;;;2.40;;
58222;SDS011;44020;50.890;15.796;2023-04-25T01:40:08;4.10;;;2.40;;
58222;SDS011;44020;50.890;15.796;2023-04-25T01:42:38;3.90;;;2.50;;
58222;SDS011;44020;50.890;15.796;2023-04-25T01:45:08;3.80;;;2.50;;
58222;SDS011;44020;50.890;15.796;2023-04-25T01:47:38;4.50;;;2.70;;
58222;SDS011;44020;50.890;15.796;2023-04-25T01:50:07;4.70;;;2.60;;
58222;SDS011;44020;50.890;15.796;2023-04-25T01:52:35;6.00;;;3.00;;
58222;SDS011;44020;50.890;15.796;2023-04-25T01:55:03;6.80;;;2.60;;
58222;SDS011;44020;50.890;15.796;2023-04-25T01:57:31;4.50;;;3.20;;
58222;SDS011;44020;50.890;15.796;2023-04-25T02:00:00;5.90;;;2.90;;
58222;SDS011;44020;50.890;15.796;2023-04-25T02:02:29;4.60;;;2.50;;
58222;SDS011;44020;50.890;15.796;2023-04-25T02:04:57;4.90;;;2.90;;
58222;SDS011;44020;50.890;15.796;2023-04-25T02:07:25;4.70;;;3.00;;
58222;SDS011;44020;50.890;15.796;2023-04-25T02:09:53;9.70;;;3.60;;
58222;SDS011;44020;50.890;15.796;2023-04-25T02:12:21;6.80;;;3.50;;
58222;SDS011;44020;50.890;15.796;2023-04-25T02:14:49;10.60;;;3.70;;
58222;SDS011;44020;50.890;15.796;2023-04-25T02:17:17;9.40;;;4.70;;
58222;SDS011;44020;50.890;15.796;2023-04-25T02:19:44;7.90;;;4.00;;
58222;SDS011;44020;50.890;15.796;2023-04-25T02:22:12;8.80;;;4.40;;
58222;SDS011;44020;50.890;15.796;2023-04-25T02:24:40;8.90;;;4.60;;
58222;SDS011;44020;50.890;15.796;2023-04-25T02:27:08;7.30;;;4.30;;
58222;SDS011;44020;50.890;15.796;2023-04-25T02:29:35;6.20;;;4.10;;
58222;SDS011;44020;50.890;15.796;2023-04-25T02:32:03;7.00;;;3.30;;
58222;SDS011;44020;50.890;15.796;2023-04-25T02:34:31;5.30;;;3.70;;
58222;SDS011;44020;50.890;15.796;2023-04-25T02:36:59;5.20;;;4.00;;
58222;SDS011;44020;50.890;15.796;2023-04-25T02:39:27;6.50;;;3.50;;
58222;SDS011;44020;50.890;15.796;2023-04-25T02:41:54;7.90;;;3.90;;
58222;SDS011;44020;50.890;15.796;2023-04-25T02:44:22;6.90;;;3.60;;
58222;SDS011;44020;50.890;15.796;2023-04-25T02:46:50;6.30;;;3.30;;
58222;SDS011;44020;50.890;15.796;2023-04-25T02:49:17;5.90;;;3.60;;
58222;SDS011;44020;50.890;15.796;2023-04-25T02:51:44;7.40;;;4.50;;
58222;SDS011;44020;50.890;15.796;2023-04-25T02:54:12;9.40;;;5.20;;
58222;SDS011;44020;50.890;15.796;2023-04-25T02:56:39;8.70;;;5.00;;
58222;SDS011;44020;50.890;15.796;2023-04-25T02:59:07;9.50;;;5.20;;
58222;SDS011;44020;50.890;15.796;2023-04-25T03:01:35;11.70;;;5.40;;
58222;SDS011;44020;50.890;15.796;2023-04-25T03:04:03;10.30;;;4.50;;
58222;SDS011;44020;50.890;15.796;2023-04-25T03:06:31;6.30;;;4.10;;
58222;SDS011;44020;50.890;15.796;2023-04-25T03:08:59;4.90;;;3.20;;
58222;SDS011;44020;50.890;15.796;2023-04-25T03:11:26;6.60;;;3.90;;
58222;SDS011;44020;50.890;15.796;2023-04-25T03:13:54;5.00;;;3.00;;
58222;SDS011;44020;50.890;15.796;2023-04-25T03:16:21;5.30;;;3.10;;
58222;SDS011;44020;50.890;15.796;2023-04-25T03:18:49;5.80;;;3.10;;
58222;SDS011;44020;50.890;15.796;2023-04-25T03:21:17;4.90;;;3.00;;
58222;SDS011;44020;50.890;15.796;2023-04-25T03:23:45;4.90;;;2.90;;
58222;SDS011;44020;50.890;15.796;2023-04-25T03:26:12;5.80;;;3.30;;
58222;SDS011;44020;50.890;15.796;2023-04-25T03:28:40;4.60;;;2.90;;
58222;SDS011;44020;50.890;15.796;2023-04-25T03:31:08;5.10;;;3.20;;
58222;SDS011;44020;50.890;15.796;2023-04-25T03:33:36;6.70;;;4.30;;
58222;SDS011;44020;50.890;15.796;2023-04-25T03:36:04;15.20;;;6.70;;
58222;SDS011;44020;50.890;15.796;2023-04-25T03:38:32;15.80;;;6.20;;
58222;SDS011;44020;50.890;15.796;2023-04-25T03:41:00;15.50;;;6.10;;
58222;SDS011;44020;50.890;15.796;2023-04-25T03:43:29;10.30;;;5.00;;
58222;SDS011;44020;50.890;15.796;2023-04-25T03:45:57;12.30;;;5.50;;
58222;SDS011;44020;50.890;15.796;2023-04-25T03:48:25;10.40;;;5.20;;
58222;SDS011;44020;50.890;15.796;2023-04-25T03:50:53;10.00;;;4.90;;
58222;SDS011;44020;50.890;15.796;2023-04-25T03:53:21;7.90;;;4.40;;
58222;SDS011;44020;50.890;15.796;2023-04-25T03:55:49;8.40;;;5.40;;
58222;SDS011;44020;50.890;15.796;2023-04-25T03:58:16;7.90;;;4.20;;
58222;SDS011;44020;50.890;15.796;2023-04-25T04:00:44;7.50;;;3.70;;
58222;SDS011;44020;50.890;15.796;2023-04-25T04:03:12;7.90;;;4.20;;
58222;SDS011;44020;50.890;15.796;2023-04-25T04:05:39;7.10;;;3.70;;
58222;SDS011;44020;50.890;15.796;2023-04-25T04:08:07;6.70;;;4.20;;
58222;SDS011;44020;50.890;15.796;2023-04-25T04:10:35;7.70;;;3.80;;
58222;SDS011;44020;50.890;15.796;2023-04-25T04:13:03;7.30;;;4.40;;
58222;SDS011;44020;50.890;15.796;2023-04-25T04:15:31;8.90;;;4.80;;
58222;SDS011;44020;50.890;15.796;2023-04-25T04:18:00;5.90;;;3.40;;
58222;SDS011;44020;50.890;15.796;2023-04-25T04:20:29;6.30;;;4.00;;
58222;SDS011;44020;50.890;15.796;2023-04-25T04:22:59;6.30;;;3.70;;
58222;SDS011;44020;50.890;15.796;2023-04-25T04:25:28;7.00;;;4.10;;
58222;SDS011;44020;50.890;15.796;2023-04-25T04:27:55;7.50;;;4.10;;
58222;SDS011;44020;50.890;15.796;2023-04-25T04:30:23;8.80;;;4.40;;
58222;SDS011;44020;50.890;15.796;2023-04-25T04:32:52;5.50;;;3.70;;
58222;SDS011;44020;50.890;15.796;2023-04-25T04:35:20;6.50;;;4.10;;
58222;SDS011;44020;50.890;15.796;2023-04-25T04:37:47;9.40;;;5.30;;
58222;SDS011;44020;50.890;15.796;2023-04-25T04:40:15;10.90;;;4.60;;
58222;SDS011;44020;50.890;15.796;2023-04-25T04:42:44;10.60;;;5.70;;
58222;SDS011;44020;50.890;15.796;2023-04-25T04:45:15;9.30;;;5.20;;
58222;SDS011;44020;50.890;15.796;2023-04-25T04:47:43;9.50;;;5.20;;
58222;SDS011;44020;50.890;15.796;2023-04-25T04:50:10;13.40;;;6.90;;
58222;SDS011;44020;50.890;15.796;2023-04-25T04:52:38;12.50;;;7.10;;
58222;SDS011;44020;50.890;15.796;2023-04-25T04:55:06;12.40;;;6.40;;
58222;SDS011;44020;50.890;15.796;2023-04-25T04:57:34;10.70;;;6.10;;
58222;SDS011;44020;50.890;15.796;2023-04-25T05:00:02;9.20;;;4.90;;
58222;SDS011;44020;50.890;15.796;2023-04-25T05:02:38;10.00;;;6.00;;
58222;SDS011;44020;50.890;15.796;2023-04-25T05:05:06;11.20;;;7.20;;
58222;SDS011;44020;50.890;15.796;2023-04-25T05:07:34;11.00;;;5.90;;
58222;SDS011;44020;50.890;15.796;2023-04-25T05:10:02;8.60;;;5.60;;
58222;SDS011;44020;50.890;15.796;2023-04-25T05:12:30;9.20;;;5.20;;
58222;SDS011;44020;50.890;15.796;2023-04-25T05:14:58;10.40;;;6.10;;
58222;SDS011;44020;50.890;15.796;2023-04-25T05:17:26;7.60;;;5.40;;
58222;SDS011;44020;50.890;15.796;2023-04-25T05:19:53;10.70;;;6.10;;
58222;SDS011;44020;50.890;15.796;2023-04-25T05:22:22;9.50;;;6.50;;
58222;SDS011;44020;50.890;15.796;2023-04-25T05:24:49;14.30;;;7.70;;
58222;SDS011;44020;50.890;15.796;2023-04-25T05:27:19;13.60;;;7.60;;
58222;SDS011;44020;50.890;15.796;2023-04-25T05:29:47;11.10;;;7.40;;
58222;SDS011;44020;50.890;15.796;2023-04-25T05:32:14;11.40;;;7.10;;
58222;SDS011;44020;50.890;15.796;2023-04-25T05:34:42;13.40;;;8.20;;
58222;SDS011;44020;50.890;15.796;2023-04-25T05:37:09;11.60;;;7.40;;
58222;SDS011;44020;50.890;15.796;2023-04-25T05:39:37;15.30;;;8.20;;
58222;SDS011;44020;50.890;15.796;2023-04-25T05:42:04;14.90;;;8.10;;
58222;SDS011;44020;50.890;15.796;2023-04-25T05:44:32;13.40;;;7.50;;
58222;SDS011;44020;50.890;15.796;2023-04-25T05:47:00;16.40;;;8.30;;
58222;SDS011;44020;50.890;15.796;2023-04-25T05:49:27;13.20;;;7.70;;
58222;SDS011;44020;50.890;15.796;2023-04-25T05:51:54;13.50;;;7.90;;
58222;SDS011;44020;50.890;15.796;2023-04-25T05:54:22;11.40;;;7.70;;
58222;SDS011;44020;50.890;15.796;2023-04-25T05:56:50;12.50;;;7.40;;
58222;SDS011;44020;50.890;15.796;2023-04-25T05:59:17;12.80;;;7.30;;
58222;SDS011;44020;50.890;15.796;2023-04-25T06:01:45;10.60;;;7.30;;
58222;SDS011;44020;50.890;15.796;2023-04-25T06:04:13;12.00;;;7.20;;
58222;SDS011;44020;50.890;15.796;2023-04-25T06:06:40;11.40;;;6.50;;
58222;SDS011;44020;50.890;15.796;2023-04-25T06:09:07;12.70;;;6.70;;
58222;SDS011;44020;50.890;15.796;2023-04-25T06:11:35;14.30;;;7.40;;
58222;SDS011;44020;50.890;15.796;2023-04-25T06:14:02;12.40;;;7.10;;
58222;SDS011;44020;50.890;15.796;2023-04-25T06:16:30;10.80;;;6.80;;
58222;SDS011;44020;50.890;15.796;2023-04-25T06:18:57;10.60;;;5.90;;
58222;SDS011;44020;50.890;15.796;2023-04-25T06:21:24;9.80;;;5.60;;
58222;SDS011;44020;50.890;15.796;2023-04-25T06:23:51;10.30;;;5.50;;
58222;SDS011;44020;50.890;15.796;2023-04-25T06:26:18;11.30;;;5.90;;
58222;SDS011;44020;50.890;15.796;2023-04-25T06:28:46;11.60;;;5.90;;
58222;SDS011;44020;50.890;15.796;2023-04-25T06:31:13;8.10;;;5.60;;
58222;SDS011;44020;50.890;15.796;2023-04-25T06:33:40;10.80;;;6.50;;
58222;SDS011;44020;50.890;15.796;2023-04-25T06:36:08;10.20;;;6.50;;
58222;SDS011;44020;50.890;15.796;2023-04-25T06:38:35;8.30;;;5.60;;
58222;SDS011;44020;50.890;15.796;2023-04-25T06:41:02;11.40;;;5.70;;
58222;SDS011;44020;50.890;15.796;2023-04-25T06:43:30;8.00;;;4.70;;
58222;SDS011;44020;50.890;15.796;2023-04-25T06:46:00;6.20;;;4.10;;
58222;SDS011;44020;50.890;15.796;2023-04-25T06:48:27;6.50;;;3.90;;
58222;SDS011;44020;50.890;15.796;2023-04-25T06:50:55;7.50;;;3.30;;
58222;SDS011;44020;50.890;15.796;2023-04-25T06:53:23;5.60;;;3.40;;
58222;SDS011;44020;50.890;15.796;2023-04-25T06:55:51;6.40;;;3.20;;
58222;SDS011;44020;50.890;15.796;2023-04-25T06:58:19;4.30;;;2.40;;
58222;SDS011;44020;50.890;15.796;2023-04-25T07:00:46;5.10;;;2.90;;
58222;SDS011;44020;50.890;15.796;2023-04-25T07:03:13;6.50;;;3.20;;
58222;SDS011;44020;50.890;15.796;2023-04-25T07:05:40;4.80;;;2.90;;
58222;SDS011;44020;50.890;15.796;2023-04-25T07:08:07;3.50;;;2.70;;
58222;SDS011;44020;50.890;15.796;2023-04-25T07:10:34;4.40;;;2.60;;
58222;SDS011;44020;50.890;15.796;2023-04-25T07:13:01;5.30;;;2.50;;
58222;SDS011;44020;50.890;15.796;2023-04-25T07:15:29;4.90;;;2.80;;
58222;SDS011;44020;50.890;15.796;2023-04-25T07:17:57;5.20;;;3.00;;
58222;SDS011;44020;50.890;15.796;2023-04-25T07:20:24;5.60;;;2.80;;
58222;SDS011;44020;50.890;15.796;2023-04-25T07:22:52;3.70;;;2.60;;
58222;SDS011;44020;50.890;15.796;2023-04-25T07:25:20;5.20;;;2.90;;
58222;SDS011;44020;50.890;15.796;2023-04-25T07:27:47;3.90;;;2.60;;
58222;SDS011;44020;50.890;15.796;2023-04-25T07:30:14;5.00;;;2.60;;
58222;SDS011;44020;50.890;15.796;2023-04-25T07:32:41;6.90;;;3.50;;
58222;SDS011;44020;50.890;15.796;2023-04-25T07:35:09;4.90;;;3.20;;
58222;SDS011;44020;50.890;15.796;2023-04-25T07:37:36;6.40;;;2.90;;
58222;SDS011;44020;50.890;15.796;2023-04-25T07:40:04;5.00;;;3.00;;
58222;SDS011;44020;50.890;15.796;2023-04-25T07:42:32;6.70;;;3.00;;
58222;SDS011;44020;50.890;15.796;2023-04-25T07:45:00;4.10;;;2.70;;
58222;SDS011;44020;50.890;15.796;2023-04-25T07:47:27;4.90;;;2.60;;
58222;SDS011;44020;50.890;15.796;2023-04-25T07:49:55;4.80;;;2.50;;
58222;SDS011;44020;50.890;15.796;2023-04-25T07:52:24;4.50;;;3.00;;
58222;SDS011;44020;50.890;15.796;2023-04-25T07:54:51;4.40;;;2.90;;
58222;SDS011;44020;50.890;15.796;2023-04-25T07:57:19;5.10;;;2.80;;
58222;SDS011;44020;50.890;15.796;2023-04-25T07:59:47;4.00;;;2.40;;
58222;SDS011;44020;50.890;15.796;2023-04-25T08:02:14;3.30;;;2.20;;
58222;SDS011;44020;50.890;15.796;2023-04-25T08:04:42;5.00;;;3.00;;
58222;SDS011;44020;50.890;15.796;2023-04-25T08:07:09;4.90;;;2.20;;
58222;SDS011;44020;50.890;15.796;2023-04-25T08:09:36;5.10;;;2.50;;
58222;SDS011;44020;50.890;15.796;2023-04-25T08:12:04;4.20;;;2.30;;
58222;SDS011;44020;50.890;15.796;2023-04-25T08:14:31;4.40;;;2.70;;
58222;SDS011;44020;50.890;15.796;2023-04-25T08:17:05;4.50;;;2.90;;
58222;SDS011;44020;50.890;15.796;2023-04-25T08:19:32;10.40;;;2.20;;
58222;SDS011;44020;50.890;15.796;2023-04-25T08:22:00;6.20;;;2.40;;
58222;SDS011;44020;50.890;15.796;2023-04-25T08:24:27;3.50;;;2.30;;
58222;SDS011;44020;50.890;15.796;2023-04-25T08:26:55;4.90;;;2.20;;
58222;SDS011;44020;50.890;15.796;2023-04-25T08:29:22;4.60;;;2.30;;
58222;SDS011;44020;50.890;15.796;2023-04-25T08:31:51;6.30;;;3.20;;
58222;SDS011;44020;50.890;15.796;2023-04-25T08:34:19;4.30;;;2.30;;
58222;SDS011;44020;50.890;15.796;2023-04-25T08:36:47;3.30;;;2.00;;
58222;SDS011;44020;50.890;15.796;2023-04-25T08:39:14;3.80;;;2.00;;
58222;SDS011;44020;50.890;15.796;2023-04-25T08:41:41;4.80;;;1.80;;
58222;SDS011;44020;50.890;15.796;2023-04-25T08:44:09;18.50;;;2.20;;
58222;SDS011;44020;50.890;15.796;2023-04-25T08:46:38;3.40;;;2.00;;
58222;SDS011;44020;50.890;15.796;2023-04-25T08:49:07;4.80;;;2.20;;
58222;SDS011;44020;50.890;15.796;2023-04-25T08:51:44;3.50;;;2.50;;
58222;SDS011;44020;50.890;15.796;2023-04-25T08:54:17;4.80;;;2.40;;
58222;SDS011;44020;50.890;15.796;2023-04-25T08:56:48;3.70;;;1.90;;
58222;SDS011;44020;50.890;15.796;2023-04-25T08:59:16;3.30;;;1.80;;
58222;SDS011;44020;50.890;15.796;2023-04-25T09:01:44;4.00;;;2.00;;
58222;SDS011;44020;50.890;15.796;2023-04-25T09:04:12;2.80;;;1.60;;
58222;SDS011;44020;50.890;15.796;2023-04-25T09:06:40;2.80;;;1.70;;
58222;SDS011;44020;50.890;15.796;2023-04-25T09:09:08;5.00;;;1.80;;
58222;SDS011;44020;50.890;15.796;2023-04-25T09:11:37;3.10;;;1.60;;
58222;SDS011;44020;50.890;15.796;2023-04-25T09:14:17;3.60;;;1.80;;
58222;SDS011;44020;50.890;15.796;2023-04-25T09:16:58;3.10;;;1.60;;
58222;SDS011;44020;50.890;15.796;2023-04-25T09:19:31;3.90;;;1.90;;
58222;SDS011;44020;50.890;15.796;2023-04-25T09:22:02;4.60;;;1.80;;
58222;SDS011;44020;50.890;15.796;2023-04-25T09:24:40;3.50;;;1.70;;
58222;SDS011;44020;50.890;15.796;2023-04-25T09:27:12;3.10;;;1.50;;
58222;SDS011;44020;50.890;15.796;2023-04-25T09:29:45;2.60;;;1.60;;
58222;SDS011;44020;50.890;15.796;2023-04-25T09:32:17;3.70;;;1.70;;
58222;SDS011;44020;50.890;15.796;2023-04-25T09:34:53;4.90;;;1.50;;
58222;SDS011;44020;50.890;15.796;2023-04-25T09:37:25;4.00;;;1.70;;
58222;SDS011;44020;50.890;15.796;2023-04-25T09:39:55;3.80;;;1.60;;
58222;SDS011;44020;50.890;15.796;2023-04-25T09:42:29;5.20;;;1.70;;
58222;SDS011;44020;50.890;15.796;2023-04-25T09:44:58;3.80;;;1.50;;
58222;SDS011;44020;50.890;15.796;2023-04-25T09:47:28;3.00;;;1.50;;
58222;SDS011;44020;50.890;15.796;2023-04-25T09:49:56;3.00;;;1.40;;
58222;SDS011;44020;50.890;15.796;2023-04-25T09:52:23;4.60;;;1.60;;
58222;SDS011;44020;50.890;15.796;2023-04-25T09:54:52;2.90;;;1.40;;
58222;SDS011;44020;50.890;15.796;2023-04-25T09:57:21;5.30;;;1.60;;
58222;SDS011;44020;50.890;15.796;2023-04-25T09:59:50;4.70;;;1.50;;
58222;SDS011;44020;50.890;15.796;2023-04-25T10:02:24;4.00;;;1.70;;
58222;SDS011;44020;50.890;15.796;2023-04-25T10:07:24;5.30;;;1.80;;
58222;SDS011;44020;50.890;15.796;2023-04-25T10:09:58;5.20;;;2.10;;
58222;SDS011;44020;50.890;15.796;2023-04-25T10:12:30;3.80;;;1.50;;
58222;SDS011;44020;50.890;15.796;2023-04-25T10:14:59;4.10;;;1.70;;
58222;SDS011;44020;50.890;15.796;2023-04-25T10:17:27;3.40;;;1.50;;
58222;SDS011;44020;50.890;15.796;2023-04-25T10:19:55;2.90;;;1.90;;
58222;SDS011;44020;50.890;15.796;2023-04-25T10:22:26;4.70;;;1.90;;
58222;SDS011;44020;50.890;15.796;2023-04-25T10:25:08;6.30;;;1.60;;
58222;SDS011;44020;50.890;15.796;2023-04-25T10:27:36;5.70;;;1.70;;
58222;SDS011;44020;50.890;15.796;2023-04-25T10:30:14;1.70;;;1.30;;
58222;SDS011;44020;50.890;15.796;2023-04-25T10:32:42;3.10;;;1.30;;
58222;SDS011;44020;50.890;15.796;2023-04-25T10:35:14;2.80;;;1.40;;
58222;SDS011;44020;50.890;15.796;2023-04-25T10:38:32;2.70;;;1.20;;
58222;SDS011;44020;50.890;15.796;2023-04-25T10:40:37;5.60;;;1.40;;
58222;SDS011;44020;50.890;15.796;2023-04-25T10:46:25;3.20;;;1.30;;
58222;SDS011;44020;50.890;15.796;2023-04-25T10:48:57;3.20;;;1.10;;
58222;SDS011;44020;50.890;15.796;2023-04-25T10:54:02;2.90;;;1.30;;
58222;SDS011;44020;50.890;15.796;2023-04-25T10:56:31;2.80;;;1.30;;
58222;SDS011;44020;50.890;15.796;2023-04-25T10:59:17;2.10;;;1.30;;
58222;SDS011;44020;50.890;15.796;2023-04-25T11:01:47;4.80;;;1.50;;
58222;SDS011;44020;50.890;15.796;2023-04-25T11:04:30;4.00;;;1.20;;
58222;SDS011;44020;50.890;15.796;2023-04-25T11:09:39;3.00;;;1.20;;
58222;SDS011;44020;50.890;15.796;2023-04-25T11:12:08;2.80;;;1.30;;
58222;SDS011;44020;50.890;15.796;2023-04-25T11:14:38;3.00;;;1.10;;
58222;SDS011;44020;50.890;15.796;2023-04-25T11:17:06;1.90;;;0.90;;
58222;SDS011;44020;50.890;15.796;2023-04-25T11:19:33;3.50;;;1.20;;
58222;SDS011;44020;50.890;15.796;2023-04-25T11:22:01;3.60;;;1.30;;
58222;SDS011;44020;50.890;15.796;2023-04-25T11:24:30;3.40;;;1.40;;
58222;SDS011;44020;50.890;15.796;2023-04-25T11:26:59;2.80;;;1.30;;
58222;SDS011;44020;50.890;15.796;2023-04-25T11:29:29;3.40;;;1.30;;
58222;SDS011;44020;50.890;15.796;2023-04-25T11:31:58;2.40;;;1.20;;
58222;SDS011;44020;50.890;15.796;2023-04-25T11:34:28;3.90;;;1.40;;
58222;SDS011;44020;50.890;15.796;2023-04-25T11:37:00;5.60;;;1.30;;
58222;SDS011;44020;50.890;15.796;2023-04-25T11:39:28;2.60;;;1.10;;
58222;SDS011;44020;50.890;15.796;2023-04-25T11:41:56;1.60;;;1.10;;
58222;SDS011;44020;50.890;15.796;2023-04-25T11:44:24;2.90;;;1.40;;
58222;SDS011;44020;50.890;15.796;2023-04-25T11:46:51;2.00;;;1.40;;
58222;SDS011;44020;50.890;15.796;2023-04-25T11:49:19;3.10;;;1.30;;
58222;SDS011;44020;50.890;15.796;2023-04-25T11:51:48;2.70;;;1.40;;
58222;SDS011;44020;50.890;15.796;2023-04-25T11:54:15;6.40;;;2.70;;
58222;SDS011;44020;50.890;15.796;2023-04-25T11:56:44;2.70;;;1.60;;
58222;SDS011;44020;50.890;15.796;2023-04-25T11:59:12;3.20;;;1.70;;
58222;SDS011;44020;50.890;15.796;2023-04-25T12:01:41;2.30;;;1.30;;
58222;SDS011;44020;50.890;15.796;2023-04-25T12:06:46;2.80;;;1.30;;
58222;SDS011;44020;50.890;15.796;2023-04-25T12:09:31;2.10;;;1.10;;
58222;SDS011;44020;50.890;15.796;2023-04-25T12:12:00;4.70;;;1.90;;
58222;SDS011;44020;50.890;15.796;2023-04-25T12:14:32;3.80;;;1.70;;
58222;SDS011;44020;50.890;15.796;2023-04-25T12:17:02;3.00;;;1.40;;
58222;SDS011;44020;50.890;15.796;2023-04-25T12:19:34;1.60;;;1.10;;
58222;SDS011;44020;50.890;15.796;2023-04-25T12:22:03;2.60;;;1.30;;
58222;SDS011;44020;50.890;15.796;2023-04-25T12:24:46;2.60;;;1.30;;
58222;SDS011;44020;50.890;15.796;2023-04-25T12:27:14;2.70;;;1.90;;
58222;SDS011;44020;50.890;15.796;2023-04-25T12:29:50;5.50;;;1.90;;
58222;SDS011;44020;50.890;15.796;2023-04-25T12:32:21;2.30;;;1.40;;
58222;SDS011;44020;50.890;15.796;2023-04-25T12:34:49;3.10;;;1.40;;
58222;SDS011;44020;50.890;15.796;2023-04-25T12:37:17;2.30;;;1.20;;
58222;SDS011;44020;50.890;15.796;2023-04-25T12:39:45;3.60;;;1.30;;
58222;SDS011;44020;50.890;15.796;2023-04-25T12:42:13;2.80;;;1.60;;
58222;SDS011;44020;50.890;15.796;2023-04-25T12:44:40;4.00;;;1.60;;
58222;SDS011;44020;50.890;15.796;2023-04-25T12:47:08;6.60;;;1.70;;
58222;SDS011;44020;50.890;15.796;2023-04-25T12:49:35;3.30;;;2.10;;
58222;SDS011;44020;50.890;15.796;2023-04-25T12:52:03;11.20;;;4.90;;
58222;SDS011;44020;50.890;15.796;2023-04-25T12:54:31;3.60;;;2.20;;
58222;SDS011;44020;50.890;15.796;2023-04-25T12:56:58;6.30;;;3.00;;
58222;SDS011;44020;50.890;15.796;2023-04-25T12:59:26;9.20;;;3.50;;
58222;SDS011;44020;50.890;15.796;2023-04-25T13:01:53;5.60;;;2.40;;
58222;SDS011;44020;50.890;15.796;2023-04-25T13:04:21;3.10;;;1.70;;
58222;SDS011;44020;50.890;15.796;2023-04-25T13:06:49;3.40;;;2.30;;
58222;SDS011;44020;50.890;15.796;2023-04-25T13:09:16;4.30;;;2.10;;
58222;SDS011;44020;50.890;15.796;2023-04-25T13:11:44;5.50;;;2.50;;
58222;SDS011;44020;50.890;15.796;2023-04-25T13:48:11;8.10;;;2.90;;
58222;SDS011;44020;50.890;15.796;2023-04-25T13:51:18;7.30;;;3.50;;
58222;SDS011;44020;50.890;15.796;2023-04-25T13:53:53;4.40;;;2.40;;
58222;SDS011;44020;50.890;15.796;2023-04-25T13:59:46;11.70;;;5.60;;
58222;SDS011;44020;50.890;15.796;2023-04-25T14:03:04;7.70;;;4.70;;
58222;SDS011;44020;50.890;15.796;2023-04-25T14:06:01;4.20;;;3.00;;
58222;SDS011;44020;50.890;15.796;2023-04-25T14:08:34;4.60;;;2.60;;
58222;SDS011;44020;50.890;15.796;2023-04-25T14:14:09;9.80;;;4.40;;
58222;SDS011;44020;50.890;15.796;2023-04-25T14:16:57;5.30;;;2.90;;
58222;SDS011;44020;50.890;15.796;2023-04-25T14:19:28;7.70;;;3.70;;
58222;SDS011;44020;50.890;15.796;2023-04-25T14:22:16;7.60;;;3.40;;
58222;SDS011;44020;50.890;15.796;2023-04-25T14:24:54;5.20;;;2.20;;
58222;SDS011;44020;50.890;15.796;2023-04-25T14:30:38;3.10;;;2.00;;
58222;SDS011;44020;50.890;15.796;2023-04-25T14:33:38;5.50;;;2.60;;
58222;SDS011;44020;50.890;15.796;2023-04-25T14:36:14;5.90;;;2.60;;
58222;SDS011;44020;50.890;15.796;2023-04-25T14:38:44;4.50;;;2.40;;
58222;SDS011;44020;50.890;15.796;2023-04-25T14:44:01;4.90;;;2.90;;
58222;SDS011;44020;50.890;15.796;2023-04-25T14:46:28;5.70;;;3.00;;
58222;SDS011;44020;50.890;15.796;2023-04-25T14:48:58;7.30;;;3.10;;
58222;SDS011;44020;50.890;15.796;2023-04-25T14:51:28;6.00;;;3.70;;
58222;SDS011;44020;50.890;15.796;2023-04-25T14:53:56;4.20;;;3.00;;
58222;SDS011;44020;50.890;15.796;2023-04-25T14:56:24;6.10;;;3.20;;
58222;SDS011;44020;50.890;15.796;2023-04-25T14:58:52;6.80;;;4.10;;
58222;SDS011;44020;50.890;15.796;2023-04-25T15:01:20;5.20;;;3.50;;
58222;SDS011;44020;50.890;15.796;2023-04-25T15:03:48;7.60;;;3.50;;
58222;SDS011;44020;50.890;15.796;2023-04-25T15:06:15;5.90;;;3.50;;
58222;SDS011;44020;50.890;15.796;2023-04-25T15:08:52;5.70;;;3.40;;
58222;SDS011;44020;50.890;15.796;2023-04-25T15:14:31;4.70;;;3.00;;
58222;SDS011;44020;50.890;15.796;2023-04-25T15:17:27;6.20;;;3.50;;
58222;SDS011;44020;50.890;15.796;2023-04-25T15:19:58;4.90;;;3.80;;
58222;SDS011;44020;50.890;15.796;2023-04-25T15:22:25;6.00;;;3.90;;
58222;SDS011;44020;50.890;15.796;2023-04-25T15:25:00;7.00;;;4.10;;
58222;SDS011;44020;50.890;15.796;2023-04-25T15:27:39;7.00;;;4.20;;
58222;SDS011;44020;50.890;15.796;2023-04-25T15:32:58;6.50;;;3.80;;
58222;SDS011;44020;50.890;15.796;2023-04-25T15:38:09;11.00;;;4.90;;
58222;SDS011;44020;50.890;15.796;2023-04-25T15:40:40;5.50;;;2.80;;
58222;SDS011;44020;50.890;15.796;2023-04-25T15:43:19;9.10;;;4.10;;
58222;SDS011;44020;50.890;15.796;2023-04-25T15:45:47;7.90;;;2.90;;
58222;SDS011;44020;50.890;15.796;2023-04-25T15:48:15;7.20;;;3.30;;
58222;SDS011;44020;50.890;15.796;2023-04-25T15:50:43;7.80;;;4.30;;
58222;SDS011;44020;50.890;15.796;2023-04-25T15:53:40;6.60;;;3.80;;
58222;SDS011;44020;50.890;15.796;2023-04-25T15:56:18;6.60;;;2.90;;